Burns Pinion Ridge Reserve, California Weather observations

Data are for 10 minute period ending at time listed.
 Day   Time   Solar   Ave.   Ave.  Ave.  Vector  Max.   Baro.   Total    
  of    of     Rad.   Air    Rel.  Wind   Wind   Wind  Press.  Precip.   
Year   Day            Temp.  Hum.  Speed  Dir.   Gust                    
2015   (PST)  Kw/m2    F      %     mph   deg.    mph    mb.     in.     
-------------------------------------------------------------------------
  87    8:10   0.51   75.1    15    1.6   138     3.3   879.9    0.00 
  87    8:20   0.54   75.1    15    2.4   150     5.5   880.0    0.00 
  87    8:30   0.58   74.3    14    3.5   130     7.9   880.1    0.00 
  87    8:40   0.61   75.0    14    2.8   167     7.0   880.1    0.00 
  87    8:50   0.65   75.7    14    4.4   143     8.0   880.2    0.00 
  87    9:00   0.68   74.9    14    4.8   146     8.3   880.3    0.00 
  87    9:10   0.71   75.6    14    5.6   175     9.9   880.5    0.00 
  87    9:20   0.73   75.5    13    5.0   220     9.9   880.5    0.00 
  87    9:30   0.76   76.2    13    6.0   173    15.7   880.5    0.00 
  87    9:40   0.79   77.0    13    4.7   160    14.4   880.4    0.00 
  87    9:50   0.82   78.1    13    5.4   175    12.5   880.3    0.00 
  87   10:00   0.84   77.9    13    6.3   166    14.0   880.3    0.00 
  87   10:10   0.86   77.2    13    5.2   172    11.0   880.2    0.00 
  87   10:20   0.88   77.8    12    6.3   180    13.1   880.3    0.00 
  87   10:30   0.89   76.9    12    5.1   197    14.1   880.3    0.00 
  87   10:40   0.91   77.4    11    7.0   194    15.6   880.3    0.00 
  87   10:50   0.93   78.5    10    6.9   174    14.4   880.3    0.00 
  87   11:00   0.94   78.0    10    8.2   183    17.9   880.1    0.00 
  87   11:10   0.95   78.0    10    6.4   196    15.2   880.1    0.00 
  87   11:20   0.95   78.7    10    5.5   207    12.7   880.0    0.00 
  87   11:30   0.96   79.1    10    5.7   201    13.5   879.9    0.00 
  87   11:40   0.96   79.1    10    6.5   182    15.9   879.8    0.00 
  87   11:50   0.97   79.6    10    6.5   176    14.8   879.8    0.00 
  87   12:00   0.94   78.9    10    7.4   176    18.2   879.6    0.00 
  87   12:10   0.96   78.9    10    7.5   167    16.5   879.4    0.00 
  87   12:20   0.96   79.7    10    6.7   190    15.3   879.4    0.00 
  87   12:30   0.95   80.3    10    8.4   153    15.5   879.2    0.00 
  87   12:40   0.94   79.8    10    9.7   149    17.8   879.1    0.00 
  87   12:50   0.94   80.3    10    5.7   213    15.5   879.0    0.00 
  87   13:00   0.92   81.0    10    5.8   173    15.0   879.0    0.00 
  87   13:10   0.91   81.2    10    6.8   171    18.2   878.8    0.00 
  87   13:20   0.89   80.0    10    8.1   205    17.3   878.7    0.00 
  87   13:30   0.88   80.1    10    8.3   169    17.0   878.6    0.00 
  87   13:40   0.86   80.5     9    8.6   160    16.7   878.5    0.00 
  87   13:50   0.84   80.5     7    7.8   196    16.0   878.4    0.00 
  87   14:00   0.81   80.8     7    6.6   203    15.6   878.3    0.00 
  87   14:10   0.78   80.7     7    6.9   187    17.0   878.2    0.00 
  87   14:20   0.76   80.9     7    7.0   189    16.1   878.1    0.00 
  87   14:30   0.73   81.2     7    7.6   161    18.8   878.0    0.00 
  87   14:40   0.71   81.0     7    8.7   152    19.4   878.0    0.00 
  87   14:50   0.67   80.0     8    9.4   149    16.2   878.0    0.00 
  87   15:00   0.64   79.8     8    9.5   151    17.9   878.0    0.00 
  87   15:10   0.61   80.2     8    7.7   155    14.8   877.9    0.00 
  87   15:20   0.58   80.2     9   10.1   148    18.0   877.8    0.00 
  87   15:30   0.54   79.4     8    9.0   154    15.4   877.8    0.00 
  87   15:40   0.51   80.1     8    7.9   154    18.0   877.8    0.00 
  87   15:50   0.47   79.5     9    9.1   153    17.9   877.7    0.00 
  87   16:00   0.43   79.3     9    7.9   149    17.5   877.7    0.00 
  87   16:10   0.39   79.4     9    7.3   175    13.9   877.7    0.00 
  87   16:20   0.35   79.5     9    6.6   188    15.1   877.7    0.00 
  87   16:30   0.32   78.9     9    6.6   212    14.0   877.7    0.00 
  87   16:40   0.28   79.2    10    5.0   204    11.4   877.7    0.00 
  87   16:50   0.24   78.8    10    7.0   210    15.1   877.8    0.00 
  87   17:00   0.20   77.4    11    6.8   216    14.7   877.9    0.00 
  87   17:10   0.16   76.4    11    9.4   213    20.2   877.8    0.00 
  87   17:20   0.13   75.2    12    8.6   208    14.3   877.8    0.00 
  87   17:30   0.09   74.6    12    7.8   210    12.9   877.7    0.00 
  87   17:40   0.04   73.7    13    4.8   207    10.1   877.7    0.00 
  87   17:50   0.02   72.6    13    6.6   209    15.2   877.6    0.00 
  87   18:00   0.01   71.5    14    5.6   220    13.9   877.6    0.00 
  87   18:10   0.00   70.8    14    7.8   215    15.7   877.6    0.00 
  87   18:20   0.00   70.2    15    4.7   222    12.8   877.6    0.00 
  87   18:30   0.00   69.5    16    4.5   221     9.2   877.5    0.00 
  87   18:40   0.00   69.1    17    5.6   241    13.2   877.5    0.00 
  87   18:50   0.00   68.8    18    5.0   236     9.7   877.6    0.00 
  87   19:00   0.00   68.2    19    4.3   244     8.0   877.6    0.00 
  87   19:10   0.00   67.5    19    4.2   231     7.6   877.7    0.00 
  87   19:20   0.00   67.3    19    4.1   252     7.2   877.7    0.00 
  87   19:30   0.00   65.3    21    3.2   240     6.9   877.8    0.00 
  87   19:40   0.00   64.8    21    4.2   218     6.5   877.8    0.00 
  87   19:50   0.00   64.3    21    4.5   208     5.9   877.8    0.00 
  87   20:00   0.00   63.6    22    4.1   193     5.3   877.8    0.00 
  87   20:10   0.00   63.2    21    4.5   187     6.3   877.8    0.00 
  87   20:20   0.00   62.7    22    4.9   176     7.2   877.9    0.00 
  87   20:30   0.00   62.7    22    4.1   179     6.1   877.9    0.00 
  87   20:40   0.00   61.1    24    3.5   185     4.5   877.9    0.00 
  87   20:50   0.00   59.4    25    2.8   220     3.7   878.0    0.00 
  87   21:00   0.00   58.1    25    1.8   207     2.4   878.0    0.00 
  87   21:10   0.00   57.0    26    3.8   192     6.0   878.1    0.00 
  87   21:20   0.00   59.8    24    5.8   194     8.8   878.3    0.00 
  87   21:30   0.00   64.2    21    5.9   209     8.3   878.4    0.00 
  87   21:40   0.00   63.7    21    4.5   217     6.5   878.4    0.00 
  87   21:50   0.00   61.9    23    3.5   233     4.2   878.4    0.00 
  87   22:00   0.00   59.1    25    4.0   238     6.0   878.4    0.00 
  87   22:10   0.00   58.6    25    3.7   238     4.9   878.5    0.00 
  87   22:20   0.00   56.5    27    3.5   241     5.1   878.5    0.00 
  87   22:30   0.00   54.8    29    1.9   246     4.8   878.6    0.00 
  87   22:40   0.00   53.5    29    2.1   341     4.3   878.7    0.00 
  87   22:50   0.00   53.4    27    1.0   218     2.6   878.7    0.00 
  87   23:00   0.00   52.1    28    0.9   245     2.7   878.7    0.00 
  87   23:10   0.00   51.5    28    0.1   292     1.0   878.7    0.00 
  87   23:20   0.00   51.4    29    0.1   282     1.2   878.7    0.00 
  87   23:30   0.00   50.4    30    0.1   311     1.2   878.8    0.00 
  87   23:40   0.00   50.2    29    0.7   261     1.6   878.8    0.00 
  87   23:50   0.00   49.8    28    0.6   297     2.1   878.8    0.00 
  88    0:00   0.00   50.2    26    1.5   302     3.5   878.7    0.00 
  88    0:10   0.00   50.0    27    0.5   311     1.9   878.7    0.00 
  88    0:20   0.00   50.1    27    0.6   253     2.2   878.7    0.00 
  88    0:30   0.00   49.5    27    0.9   238     1.7   878.6    0.00 
  88    0:40   0.00   49.9    26    1.0   243     1.4   878.6    0.00 
  88    0:50   0.00   50.2    26    0.9   248     1.8   878.6    0.00 
  88    1:00   0.00   50.4    25    0.9   275     2.6   878.5    0.00 
  88    1:10   0.00   50.3    26    0.1   328     1.2   878.4    0.00 
  88    1:20   0.00   50.1    26    0.4   282     2.1   878.4    0.00 
  88    1:30   0.00   50.6    25    0.7   282     2.4   878.3    0.00 
  88    1:40   0.00   50.5    26    0.1   302     1.2   878.2    0.00 
  88    1:50   0.00   50.0    26    0.0   293     0.3   878.1    0.00 
  88    2:00   0.00   49.7    26    0.1   291     1.7   878.0    0.00 
  88    2:10   0.00   49.5    26    1.4   305     2.9   878.0    0.00 
  88    2:20   0.00   50.2    26    0.5   285     2.3   878.0    0.00 
  88    2:30   0.00   49.9    26    0.0   260     0.4   877.8    0.00 
  88    2:40   0.00   50.2    26    0.0     0     0.0   877.8    0.00 
  88    2:50   0.00   50.9    26    0.0     0     0.0   877.8    0.00 
  88    3:00   0.00   50.8    26    0.5   212     1.9   877.8    0.00 
  88    3:10   0.00   50.7    26    0.2   349     1.4   877.8    0.00 
  88    3:20   0.00   50.6    26    0.1   337     0.9   877.7    0.00 
  88    3:30   0.00   50.5    26    2.2    38     4.1   877.7    0.00 
  88    3:40   0.00   50.4    25    2.6    50     4.5   877.8    0.00 
  88    3:50   0.00   49.8    26    1.6    36     3.2   877.8    0.00 
  88    4:00   0.00   49.7    26    1.4    18     2.6   877.9    0.00 
  88    4:10   0.00   49.0    27    1.4   356     3.1   877.9    0.00 
  88    4:20   0.00   49.3    26    1.2    54     3.1   878.0    0.00 
  88    4:30   0.00   49.4    26    0.6   106     2.3   878.1    0.00 
  88    4:40   0.00   48.3    28    1.6   332     2.9   878.2    0.00 
  88    4:50   0.00   47.4    28    0.7   348     2.1   878.3    0.00 
  88    5:00   0.00   47.4    28    0.0     0     0.0   878.3    0.00 
  88    5:10   0.00   46.9    29    0.4   335     1.5   878.4    0.00 
  88    5:20   0.00   47.0    29    0.2   325     1.2   878.4    0.00 
  88    5:30   0.00   47.2    29    0.0     0     0.0   878.4    0.00 
  88    5:40   0.00   47.0    29    0.3   306     1.4   878.4    0.00 
  88    5:50   0.01   46.7    30    0.0     0     0.0   878.6    0.00 
  88    6:00   0.02   47.2    29    0.9   307     2.2   878.7    0.00 
  88    6:10   0.04   47.6    29    0.0   285     0.5   878.8    0.00 
  88    6:20   0.05   48.2    30    0.0   288     0.5   878.9    0.00 
  88    6:30   0.06   49.4    29    0.1   309     1.9   879.1    0.00 
  88    6:40   0.11   52.5    25    0.7   340     3.4   879.2    0.00 
  88    6:50   0.16   58.7    21    2.3    19     4.7   879.2    0.00 
  88    7:00   0.18   63.8    16    2.3    10     4.2   879.2    0.00 
  88    7:10   0.20   66.9    14    2.6    16     4.7   879.2    0.00 
  88    7:20   0.25   68.6    13    1.4    22     3.0   879.1    0.00 
  88    7:30   0.35   70.2    13    1.1    63     2.7   879.1    0.00 
  88    7:40   0.36   71.4    12    0.6    86     1.6   878.9    0.00 
  88    7:50   0.42   73.3    11    0.8    84     2.3   878.9    0.00 
  88    8:00   0.43   73.6    12    1.8    73     4.2   879.0    0.00 

Return to Burns Pinion Ridge Reserve graphs page.


Western Regional Climate Center,wrcc@dri.edu